createdAt,value
2023-04-20T00:01:50.839Z,1.63
2023-04-20T00:04:18.798Z,1.40
2023-04-20T00:06:46.741Z,1.77
2023-04-20T00:09:16.405Z,1.60
2023-04-20T00:11:44.472Z,1.50
2023-04-20T00:14:12.405Z,1.50
2023-04-20T00:16:40.580Z,1.40
2023-04-20T00:19:09.375Z,1.60
2023-04-20T00:21:37.272Z,1.50
2023-04-20T00:24:05.562Z,1.90
2023-04-20T00:26:35.083Z,1.60
2023-04-20T00:29:03.624Z,1.50
2023-04-20T00:31:32.577Z,1.50
2023-04-20T00:34:00.606Z,1.47
2023-04-20T00:36:28.485Z,1.33
2023-04-20T00:38:56.758Z,1.47
2023-04-20T00:41:24.857Z,2.03
2023-04-20T00:43:54.300Z,1.30
2023-04-20T00:46:22.430Z,1.43
2023-04-20T00:48:50.977Z,1.73
2023-04-20T00:51:18.984Z,1.10
2023-04-20T00:53:46.952Z,1.30
2023-04-20T00:56:15.092Z,1.63
2023-04-20T00:58:43.547Z,1.63
2023-04-20T01:01:13.125Z,1.57
2023-04-20T01:03:41.266Z,1.47
2023-04-20T01:06:09.308Z,1.67
2023-04-20T01:08:37.256Z,1.50
2023-04-20T01:11:05.232Z,1.50
2023-04-20T01:13:33.143Z,1.50
2023-04-20T01:16:01.440Z,1.67
2023-04-20T01:18:30.854Z,1.30
2023-04-20T01:20:58.738Z,1.67
2023-04-20T01:23:28.171Z,1.37
2023-04-20T01:25:56.097Z,1.40
2023-04-20T01:28:24.258Z,1.47
2023-04-20T01:30:52.286Z,1.70
2023-04-20T01:33:20.174Z,1.60
2023-04-20T01:35:48.341Z,1.87
2023-04-20T01:38:19.364Z,1.20
2023-04-20T01:40:48.667Z,1.67
2023-04-20T01:43:18.698Z,1.77
2023-04-20T01:45:46.686Z,1.73
2023-04-20T01:48:15.150Z,1.47
2023-04-20T01:50:43.039Z,1.40
2023-04-20T01:53:10.954Z,1.40
2023-04-20T01:55:38.965Z,1.67
2023-04-20T01:58:08.209Z,1.50
2023-04-20T02:00:36.162Z,1.57
2023-04-20T02:03:04.380Z,1.20
2023-04-20T02:05:32.386Z,1.33
2023-04-20T02:08:00.286Z,1.30
2023-04-20T02:10:28.325Z,1.40
2023-04-20T02:12:56.233Z,1.60
2023-04-20T02:15:25.496Z,1.40
2023-04-20T02:17:53.532Z,1.80
2023-04-20T02:20:21.490Z,1.40
2023-04-20T02:22:49.598Z,1.30
2023-04-20T02:25:17.476Z,1.30
2023-04-20T02:27:45.430Z,1.20
2023-04-20T02:30:14.128Z,1.10
2023-04-20T02:32:43.641Z,1.33
2023-04-20T02:35:11.659Z,1.53
2023-04-20T02:37:39.609Z,1.20
2023-04-20T02:40:08.745Z,1.57
2023-04-20T02:42:36.672Z,1.40
2023-04-20T02:45:05.334Z,1.47
2023-04-20T02:47:33.284Z,1.30
2023-04-20T02:50:02.624Z,1.40
2023-04-20T02:52:30.670Z,1.20
2023-04-20T02:54:58.572Z,1.43
2023-04-20T02:57:26.572Z,1.30
2023-04-20T02:59:54.467Z,1.50
2023-04-20T03:02:22.699Z,1.10
2023-04-20T03:04:50.793Z,1.40
2023-04-20T03:07:20.175Z,1.80
2023-04-20T03:09:48.085Z,1.30
2023-04-20T03:12:16.092Z,1.37
2023-04-20T03:14:43.921Z,2.10
2023-04-20T03:17:11.975Z,1.17
2023-04-20T03:19:39.913Z,1.00
2023-04-20T03:22:07.895Z,1.30
2023-04-20T03:24:37.256Z,1.23
2023-04-20T03:27:05.455Z,1.40
2023-04-20T03:29:33.369Z,1.43
2023-04-20T03:32:01.305Z,1.20
2023-04-20T03:34:29.398Z,1.40
2023-04-20T03:36:57.382Z,1.17
2023-04-20T03:39:25.343Z,1.53
2023-04-20T03:41:54.636Z,1.30
2023-04-20T03:44:22.534Z,1.37
2023-04-20T03:46:51.095Z,1.20
2023-04-20T03:49:22.619Z,1.20
2023-04-20T03:51:50.536Z,1.50
2023-04-20T03:54:18.397Z,1.23
2023-04-20T03:56:46.580Z,1.27
2023-04-20T03:59:16.074Z,1.33
2023-04-20T04:01:44.226Z,1.30
2023-04-20T04:04:12.344Z,1.20
2023-04-20T04:06:40.420Z,1.30
2023-04-20T04:09:08.952Z,1.30
2023-04-20T04:11:36.767Z,1.47
2023-04-20T04:14:05.240Z,1.20
2023-04-20T04:16:34.586Z,1.40
2023-04-20T04:19:02.529Z,1.27
2023-04-20T04:21:30.856Z,1.30
2023-04-20T04:23:59.059Z,1.10
2023-04-20T04:26:26.982Z,1.33
2023-04-20T04:28:55.358Z,1.30
2023-04-20T04:31:23.609Z,1.10
2023-04-20T04:33:53.054Z,1.37
2023-04-20T04:36:21.625Z,1.20
2023-04-20T04:38:49.753Z,1.00
2023-04-20T04:41:17.757Z,1.20
2023-04-20T04:43:46.064Z,1.67
2023-04-20T04:46:14.596Z,1.17
2023-04-20T04:48:43.431Z,1.30
2023-04-20T04:51:12.836Z,1.47
2023-04-20T04:53:45.041Z,1.40
2023-04-20T04:56:13.337Z,1.23
2023-04-20T04:58:41.505Z,1.20
2023-04-20T05:01:09.427Z,1.43
2023-04-20T05:03:37.554Z,1.80
2023-04-20T05:06:05.736Z,1.10
2023-04-20T05:08:35.110Z,1.40
2023-04-20T05:11:03.149Z,1.50
2023-04-20T05:13:31.151Z,1.77
2023-04-20T05:15:59.074Z,1.40
2023-04-20T05:18:27.080Z,1.40
2023-04-20T05:20:55.268Z,1.50
2023-04-20T05:23:23.196Z,1.67
2023-04-20T05:25:52.560Z,2.07
2023-04-20T05:28:21.090Z,1.87
2023-04-20T05:30:49.007Z,1.80
2023-04-20T05:33:17.121Z,1.80
2023-04-20T05:35:45.231Z,1.93
2023-04-20T05:38:13.244Z,2.83
2023-04-20T05:40:41.169Z,2.20
2023-04-20T05:43:10.470Z,1.57
2023-04-20T05:45:38.430Z,1.70
2023-04-20T05:48:06.775Z,1.90
2023-04-20T05:50:34.726Z,1.90
2023-04-20T05:53:02.628Z,1.70
2023-04-20T05:55:30.683Z,1.60
2023-04-20T05:57:58.605Z,1.90
2023-04-20T06:00:28.128Z,2.33
2023-04-20T06:02:56.263Z,1.40
2023-04-20T06:05:24.489Z,1.90
2023-04-20T06:07:53.108Z,1.90
2023-04-20T06:10:21.262Z,1.63
2023-04-20T06:12:49.152Z,1.67
2023-04-20T06:15:17.222Z,2.40
2023-04-20T06:17:46.593Z,2.10
2023-04-20T06:20:14.603Z,1.77
2023-04-20T06:22:45.437Z,1.50
2023-04-20T06:25:13.431Z,2.00
2023-04-20T06:27:41.455Z,2.33
2023-04-20T06:30:10.262Z,1.60
2023-04-20T06:32:38.967Z,2.43
2023-04-20T06:35:09.505Z,2.03
2023-04-20T06:37:37.668Z,2.00
2023-04-20T06:40:08.220Z,2.10
2023-04-20T06:42:36.620Z,1.93
2023-04-20T06:45:05.063Z,2.30
2023-04-20T06:47:33.803Z,2.70
2023-04-20T06:50:01.890Z,2.53
2023-04-20T06:52:32.026Z,2.60
2023-04-20T06:55:00.423Z,2.30
2023-04-20T06:57:28.493Z,2.10
2023-04-20T06:59:56.486Z,1.70
2023-04-20T07:02:24.824Z,2.40
2023-04-20T07:04:53.006Z,2.00
2023-04-20T07:07:21.127Z,1.90
2023-04-20T07:09:50.496Z,1.70
2023-04-20T07:12:18.447Z,1.77
2023-04-20T07:14:46.400Z,1.90
2023-04-20T07:17:14.493Z,1.53
2023-04-20T07:19:42.459Z,2.00
2023-04-20T07:22:10.467Z,2.00
2023-04-20T07:24:38.412Z,1.80
2023-04-20T07:27:08.614Z,1.90
2023-04-20T07:29:36.507Z,1.80
2023-04-20T07:32:04.609Z,2.47
2023-04-20T07:34:32.574Z,1.80
2023-04-20T07:37:00.501Z,2.00
2023-04-20T07:39:30.270Z,1.70
2023-04-20T07:41:58.185Z,1.40
2023-04-20T07:44:27.538Z,1.60
2023-04-20T07:46:57.885Z,1.67
2023-04-20T07:49:26.122Z,1.40
2023-04-20T07:51:58.623Z,1.57
2023-04-20T07:54:32.351Z,1.67
2023-04-20T07:57:01.456Z,1.40
2023-04-20T07:59:30.819Z,1.63
2023-04-20T08:02:01.308Z,2.07
2023-04-20T08:04:29.571Z,1.90
2023-04-20T08:06:57.771Z,1.60
2023-04-20T08:09:26.538Z,1.70
2023-04-20T08:11:54.505Z,1.53
2023-04-20T08:14:22.445Z,1.47
2023-04-20T08:16:51.767Z,2.00
2023-04-20T08:19:19.726Z,1.40
2023-04-20T08:21:47.752Z,1.60
2023-04-20T08:24:16.062Z,1.60
2023-04-20T08:26:44.573Z,1.30
2023-04-20T08:29:12.478Z,2.43
2023-04-20T08:31:40.468Z,1.60
2023-04-20T08:34:09.866Z,1.40
2023-04-20T08:36:37.824Z,1.67
2023-04-20T08:39:10.268Z,1.50
2023-04-20T08:41:38.212Z,2.17
2023-04-20T08:44:06.386Z,1.60
2023-04-20T08:46:34.544Z,1.93
2023-04-20T08:49:02.712Z,1.30
2023-04-20T08:51:32.658Z,1.53
2023-04-20T08:54:05.353Z,2.00
2023-04-20T08:56:36.052Z,1.80
2023-04-20T08:59:05.410Z,1.90
2023-04-20T09:01:36.160Z,1.40
2023-04-20T09:04:05.623Z,1.27
2023-04-20T09:06:35.067Z,1.40
2023-04-20T09:09:03.067Z,1.40
2023-04-20T09:11:31.022Z,1.63
2023-04-20T09:14:00.070Z,1.37
2023-04-20T09:16:28.236Z,1.20
2023-04-20T09:18:56.642Z,1.53
2023-04-20T09:21:26.705Z,1.27
2023-04-20T09:23:59.708Z,1.50
2023-04-20T09:26:27.728Z,2.33
2023-04-20T09:28:56.109Z,1.53
2023-04-20T09:31:24.404Z,1.43
2023-04-20T09:34:01.593Z,1.87
2023-04-20T09:36:39.177Z,1.50
2023-04-20T09:39:10.230Z,1.50
2023-04-20T09:41:38.640Z,1.60
2023-04-20T09:44:06.781Z,1.50
2023-04-20T09:46:35.591Z,1.30
2023-04-20T09:49:04.657Z,1.30
2023-04-20T09:51:33.535Z,1.40
2023-04-20T09:54:02.144Z,1.40
2023-04-20T09:56:31.515Z,1.40
2023-04-20T09:59:01.222Z,1.37
2023-04-20T10:01:31.311Z,1.40
2023-04-20T10:03:59.771Z,1.40
2023-04-20T10:06:28.939Z,1.53
2023-04-20T10:08:56.838Z,1.60
2023-04-20T10:11:34.286Z,1.20
2023-04-20T10:14:18.342Z,1.37
2023-04-20T10:17:00.335Z,1.43
2023-04-20T10:19:38.025Z,1.83
2023-04-20T10:22:06.108Z,2.20
2023-04-20T10:24:34.032Z,2.37
2023-04-20T10:27:02.880Z,4.20
2023-04-20T10:29:33.541Z,3.17
2023-04-20T10:32:02.380Z,3.10
2023-04-20T10:34:33.312Z,3.50
2023-04-20T10:37:10.982Z,2.70
2023-04-20T10:39:44.545Z,4.07
2023-04-20T10:42:12.441Z,3.20
2023-04-20T10:44:49.974Z,3.30
2023-04-20T10:47:17.963Z,2.87
2023-04-20T10:49:46.006Z,3.53
2023-04-20T10:52:14.185Z,2.90
2023-04-20T10:54:44.922Z,3.50
2023-04-20T10:57:17.371Z,2.60
2023-04-20T10:59:46.925Z,3.00
2023-04-20T11:02:16.570Z,2.60
2023-04-20T11:04:44.717Z,2.37
2023-04-20T11:07:13.565Z,2.70
2023-04-20T11:09:42.849Z,2.80
2023-04-20T11:12:14.688Z,3.20
2023-04-20T11:14:52.307Z,2.70
2023-04-20T11:17:21.692Z,2.40
2023-04-20T11:19:49.716Z,3.30
2023-04-20T11:22:26.829Z,2.70
2023-04-20T11:25:05.514Z,2.57
2023-04-20T11:27:33.591Z,2.93
2023-04-20T11:30:05.575Z,2.30
2023-04-20T11:32:35.209Z,2.40
2023-04-20T11:35:07.038Z,2.90
2023-04-20T11:37:35.569Z,3.40
2023-04-20T11:40:08.493Z,2.33
2023-04-20T11:42:36.663Z,2.33
2023-04-20T11:45:05.280Z,2.87
2023-04-20T11:47:34.761Z,2.57
2023-04-20T11:50:02.800Z,2.37
2023-04-20T11:52:30.709Z,2.23
2023-04-20T11:54:58.634Z,3.20
2023-04-20T11:57:26.719Z,4.93
2023-04-20T11:59:54.622Z,7.40
2023-04-20T12:02:22.892Z,6.63
2023-04-20T12:04:52.482Z,7.27
2023-04-20T12:07:20.473Z,6.60
2023-04-20T12:09:49.042Z,7.10
2023-04-20T12:12:17.672Z,6.70
2023-04-20T12:14:45.681Z,6.03
2023-04-20T12:17:14.037Z,5.73
2023-04-20T12:19:41.931Z,5.63
2023-04-20T12:22:11.276Z,5.27
2023-04-20T12:24:39.443Z,6.70
2023-04-20T12:27:07.737Z,5.93
2023-04-20T12:29:35.865Z,6.30
2023-04-20T12:32:03.827Z,6.13
2023-04-20T12:34:31.823Z,6.17
2023-04-20T12:36:59.762Z,6.43
2023-04-20T12:39:29.630Z,5.53
2023-04-20T12:41:58.052Z,5.70
2023-04-20T12:44:26.061Z,6.00
2023-04-20T12:46:54.033Z,4.97
2023-04-20T12:49:22.099Z,6.07
2023-04-20T12:51:50.055Z,5.03
2023-04-20T12:54:18.376Z,5.30
2023-04-20T12:56:47.926Z,6.17
2023-04-20T12:59:15.969Z,5.60
2023-04-20T13:01:44.033Z,5.27
2023-04-20T13:04:12.119Z,5.53
2023-04-20T13:06:40.099Z,6.33
2023-04-20T13:09:08.011Z,7.13
2023-04-20T13:11:36.013Z,5.10
2023-04-20T13:14:05.738Z,5.50
2023-04-20T13:16:33.789Z,6.00
2023-04-20T13:19:01.818Z,5.77
2023-04-20T13:21:29.720Z,5.97
2023-04-20T13:23:57.675Z,5.90
2023-04-20T13:26:25.560Z,5.73
2023-04-20T13:28:54.298Z,6.87
2023-04-20T13:31:23.669Z,5.40
2023-04-20T13:33:54.701Z,6.00
2023-04-20T13:36:22.932Z,5.00
2023-04-20T13:38:54.344Z,5.70
2023-04-20T13:41:23.634Z,6.03
2023-04-20T13:43:51.731Z,4.70
2023-04-20T13:46:20.078Z,5.37
2023-04-20T13:48:49.556Z,5.40
2023-04-20T13:51:17.452Z,5.97
2023-04-20T13:53:45.342Z,5.03
2023-04-20T13:56:13.482Z,5.57
2023-04-20T13:58:41.577Z,5.50
2023-04-20T14:01:09.812Z,4.83
2023-04-20T14:03:37.795Z,5.40
2023-04-20T14:06:07.778Z,5.30
2023-04-20T14:08:36.279Z,4.93
2023-04-20T14:11:04.635Z,5.57
2023-04-20T14:13:32.608Z,5.30
2023-04-20T14:16:00.670Z,5.20
2023-04-20T14:18:28.760Z,4.57
2023-04-20T14:20:56.769Z,4.60
2023-04-20T14:23:26.662Z,4.20
2023-04-20T14:25:54.564Z,5.00
2023-04-20T14:28:22.502Z,4.07
2023-04-20T14:30:51.333Z,6.43
2023-04-20T14:33:19.771Z,4.60
2023-04-20T14:35:47.688Z,5.00
2023-04-20T14:38:15.667Z,4.50
2023-04-20T14:40:44.993Z,4.57
2023-04-20T14:43:12.920Z,4.60
2023-04-20T14:45:41.568Z,4.80
2023-04-20T14:48:09.483Z,5.37
2023-04-20T14:50:37.603Z,4.10
2023-04-20T14:53:05.549Z,4.70
2023-04-20T14:55:33.519Z,4.07
2023-04-20T14:58:02.948Z,4.30
2023-04-20T15:00:31.054Z,4.93
2023-04-20T15:02:59.673Z,4.57
2023-04-20T15:05:27.973Z,4.30
2023-04-20T15:07:56.002Z,4.60
2023-04-20T15:10:23.944Z,4.20
2023-04-20T15:12:51.973Z,4.07
2023-04-20T15:15:26.554Z,4.40
2023-04-20T15:17:58.141Z,4.23
2023-04-20T15:20:27.318Z,4.30
2023-04-20T15:22:55.340Z,4.20
2023-04-20T15:25:23.724Z,3.47
2023-04-20T15:27:51.856Z,3.60
2023-04-20T15:30:21.026Z,4.50
2023-04-20T15:32:50.539Z,4.60
2023-04-20T15:35:18.435Z,4.03
2023-04-20T15:37:46.494Z,3.57
2023-04-20T15:40:15.610Z,4.67
2023-04-20T15:42:43.555Z,4.03
2023-04-20T15:45:12.152Z,3.10
2023-04-20T15:47:40.083Z,3.63
2023-04-20T15:50:10.048Z,3.73
2023-04-20T15:52:37.958Z,4.63
2023-04-20T15:55:06.786Z,3.60
2023-04-20T15:57:34.773Z,4.50
2023-04-20T16:00:04.020Z,3.57
2023-04-20T16:02:32.155Z,4.33
2023-04-20T16:05:00.334Z,4.20
2023-04-20T16:07:29.879Z,4.23
2023-04-20T16:09:57.803Z,4.13
2023-04-20T16:12:25.699Z,3.70
2023-04-20T16:14:53.893Z,4.00
2023-04-20T16:17:22.224Z,3.73
2023-04-20T16:19:50.498Z,4.20
2023-04-20T16:22:18.444Z,3.37
2023-04-20T16:24:47.773Z,4.20
2023-04-20T16:27:15.892Z,4.10
2023-04-20T16:29:44.230Z,4.40
2023-04-20T16:32:12.582Z,3.67
2023-04-20T16:34:41.095Z,3.77
2023-04-20T16:37:09.078Z,3.33
2023-04-20T16:39:37.422Z,3.33
2023-04-20T16:42:06.926Z,3.30
2023-04-20T16:44:34.853Z,3.17
2023-04-20T16:47:03.069Z,3.40
2023-04-20T16:49:31.098Z,3.47
2023-04-20T16:51:59.127Z,3.27
2023-04-20T16:54:27.248Z,3.67
2023-04-20T16:56:55.960Z,3.20
2023-04-20T16:59:25.410Z,3.60
2023-04-20T17:01:56.332Z,5.40
2023-04-20T17:04:24.322Z,4.43
2023-04-20T17:06:53.002Z,4.17
2023-04-20T17:09:23.883Z,3.87
2023-04-20T17:11:52.692Z,4.00
2023-04-20T17:14:20.807Z,3.40
2023-04-20T17:16:54.028Z,4.70
2023-04-20T17:19:22.016Z,4.13
2023-04-20T17:21:49.951Z,4.30
2023-04-20T17:24:18.102Z,5.40
2023-04-20T17:26:46.410Z,4.40
2023-04-20T17:29:14.659Z,4.33
2023-04-20T17:31:42.607Z,4.37
2023-04-20T17:34:11.904Z,4.10
2023-04-20T17:36:39.767Z,3.80
2023-04-20T17:39:07.818Z,3.67
2023-04-20T17:41:35.872Z,4.30
2023-04-20T17:44:03.786Z,3.77
2023-04-20T17:46:31.847Z,4.00
2023-04-20T17:48:59.783Z,3.70
2023-04-20T17:51:29.178Z,3.63
2023-04-20T17:53:57.068Z,3.53
2023-04-20T17:56:25.092Z,3.97
2023-04-20T17:58:53.356Z,4.37
2023-04-20T18:01:21.304Z,4.33
2023-04-20T18:03:50.035Z,3.80
2023-04-20T18:06:18.097Z,3.70
2023-04-20T18:08:47.602Z,3.90
2023-04-20T18:11:15.530Z,3.60
2023-04-20T18:13:44.649Z,3.00
2023-04-20T18:16:12.627Z,3.20
2023-04-20T18:18:40.546Z,3.30
2023-04-20T18:21:09.870Z,3.53
2023-04-20T18:23:37.790Z,3.77
2023-04-20T18:26:07.561Z,4.57
2023-04-20T18:28:35.590Z,3.60
2023-04-20T18:31:03.518Z,3.53
2023-04-20T18:33:31.467Z,3.63
2023-04-20T18:35:59.410Z,3.00
2023-04-20T18:38:27.362Z,3.07
2023-04-20T18:40:55.461Z,3.57
2023-04-20T18:43:24.794Z,4.40
2023-04-20T18:45:52.711Z,5.23
2023-04-20T18:48:20.831Z,3.10
2023-04-20T18:50:49.000Z,5.03
2023-04-20T18:53:16.911Z,3.40
2023-04-20T18:55:46.600Z,3.80
2023-04-20T18:58:14.486Z,4.30
2023-04-20T19:00:43.976Z,3.33
2023-04-20T19:03:11.993Z,3.53
2023-04-20T19:05:40.173Z,4.20
2023-04-20T19:08:08.069Z,4.50
2023-04-20T19:10:36.013Z,4.40
2023-04-20T19:13:03.953Z,3.67
2023-04-20T19:15:32.089Z,3.47
2023-04-20T19:18:01.571Z,3.77
2023-04-20T19:20:29.472Z,3.60
2023-04-20T19:23:00.173Z,3.63
2023-04-20T19:25:28.290Z,3.07
2023-04-20T19:27:56.250Z,3.23
2023-04-20T19:30:24.076Z,3.60
2023-04-20T19:32:52.072Z,3.93
2023-04-20T19:35:21.464Z,3.17
2023-04-20T19:37:49.517Z,3.73
2023-04-20T19:40:19.653Z,3.33
2023-04-20T19:42:48.719Z,3.27
2023-04-20T19:45:16.645Z,3.10
2023-04-20T19:47:44.669Z,3.63
2023-04-20T19:50:13.864Z,3.20
2023-04-20T19:52:43.328Z,3.37
2023-04-20T19:55:11.463Z,2.70
2023-04-20T19:57:39.365Z,3.40
2023-04-20T20:00:09.885Z,3.10
2023-04-20T20:02:38.466Z,3.20
2023-04-20T20:05:07.157Z,2.97
2023-04-20T20:07:35.802Z,2.90
2023-04-20T20:10:06.432Z,2.80
2023-04-20T20:12:34.324Z,2.90
2023-04-20T20:15:08.817Z,3.40
2023-04-20T20:17:37.036Z,2.77
2023-04-20T20:20:07.088Z,3.80
2023-04-20T20:22:38.121Z,4.10
2023-04-20T20:25:08.603Z,3.50
2023-04-20T20:27:36.641Z,3.60
2023-04-20T20:30:05.124Z,3.63
2023-04-20T20:32:33.119Z,2.97
2023-04-20T20:35:01.033Z,3.30
2023-04-20T20:37:34.879Z,3.70
2023-04-20T20:40:06.763Z,3.30
2023-04-20T20:42:40.018Z,2.93
2023-04-20T20:45:10.842Z,3.00
2023-04-20T20:47:38.892Z,3.23
2023-04-20T20:50:08.017Z,3.43
2023-04-20T20:52:36.048Z,2.97
2023-04-20T20:55:04.096Z,3.27
2023-04-20T20:57:32.089Z,2.83
2023-04-20T21:00:01.445Z,3.07
2023-04-20T21:02:29.594Z,3.00
2023-04-20T21:04:57.759Z,3.47
2023-04-20T21:07:25.707Z,3.30
2023-04-20T21:09:53.671Z,2.67
2023-04-20T21:12:21.604Z,2.93
2023-04-20T21:14:51.338Z,3.00
2023-04-20T21:17:20.676Z,3.07
2023-04-20T21:19:48.597Z,2.77
2023-04-20T21:22:16.568Z,3.00
2023-04-20T21:24:44.537Z,3.00
2023-04-20T21:27:12.533Z,3.17
2023-04-20T21:29:40.501Z,2.43
2023-04-20T21:32:09.811Z,2.73
2023-04-20T21:34:39.170Z,3.83
2023-04-20T21:37:07.143Z,3.10
2023-04-20T21:39:35.086Z,2.50
2023-04-20T21:42:03.226Z,2.87
2023-04-20T21:44:31.153Z,2.93
2023-04-20T21:47:02.295Z,2.63
2023-04-20T21:49:30.366Z,2.30
2023-04-20T21:51:59.662Z,2.63
2023-04-20T21:54:27.578Z,2.27
2023-04-20T21:56:55.545Z,2.37
2023-04-20T21:59:23.431Z,2.33
2023-04-20T22:01:51.462Z,2.90
2023-04-20T22:04:19.547Z,2.40
2023-04-20T22:06:48.779Z,2.70
2023-04-20T22:09:18.639Z,2.57
2023-04-20T22:11:53.728Z,3.17
2023-04-20T22:14:21.636Z,2.60
2023-04-20T22:16:49.505Z,2.30
2023-04-20T22:19:17.685Z,3.00
2023-04-20T22:21:45.733Z,2.80
2023-04-20T22:24:13.684Z,2.80
2023-04-20T22:26:43.023Z,2.70
2023-04-20T22:29:10.938Z,2.90
2023-04-20T22:31:38.938Z,2.90
2023-04-20T22:34:06.984Z,2.80
2023-04-20T22:36:35.135Z,2.93
2023-04-20T22:39:03.110Z,2.57
2023-04-20T22:41:31.686Z,2.33
2023-04-20T22:44:01.024Z,2.67
2023-04-20T22:46:28.927Z,2.20
2023-04-20T22:48:58.006Z,2.13
2023-04-20T22:51:26.084Z,3.00
2023-04-20T22:53:53.971Z,2.40
2023-04-20T22:56:21.905Z,2.87
2023-04-20T22:58:49.875Z,2.13
2023-04-20T23:01:19.417Z,2.33
2023-04-20T23:03:47.648Z,2.50
2023-04-20T23:06:18.785Z,2.20
2023-04-20T23:08:46.929Z,2.47
2023-04-20T23:11:16.460Z,2.73
2023-04-20T23:13:44.463Z,2.20
2023-04-20T23:16:12.389Z,2.30
2023-04-20T23:18:41.752Z,2.30
2023-04-20T23:21:09.737Z,2.33
2023-04-20T23:23:37.758Z,2.53
2023-04-20T23:26:05.904Z,2.53
2023-04-20T23:28:33.854Z,2.33
2023-04-20T23:31:01.765Z,2.13
2023-04-20T23:33:29.671Z,2.50
2023-04-20T23:36:00.702Z,2.77
2023-04-20T23:38:28.723Z,2.27
2023-04-20T23:40:56.621Z,2.60
2023-04-20T23:43:24.675Z,2.37
2023-04-20T23:45:52.891Z,2.43
2023-04-20T23:48:20.829Z,2.37
2023-04-20T23:50:49.928Z,2.20
2023-04-20T23:53:19.264Z,1.90
2023-04-20T23:55:51.688Z,2.07
2023-04-20T23:58:19.680Z,2.30
